Latest Weather Observations for Geraldton Airport

IDW60801

Issued at 11:33 am WST Sunday 25 September 2016 (issued every 30 minutes, with the page automatically refreshed every 10 minutes)

About weather observations | Map of weather stations | Latest weather observations for WA | Other Formats
Station Details ID: 008315 Name: GERALDTON AIRPORT Lat: -28.80 Lon: 114.70 Height: 29.7 m
Data from the previous 72 hours. | See also: Recent months at Geraldton Airport
Date/Time
WST
Temp
°C
App
Temp
°C
Dew
Point
°C
Rel
Hum
%
Delta-T
°C
Wind Press
QNH
hPa
Press
MSL
hPa
Rain since
9am
mm
Dir  Spd
km/h
Gust
km/h
Spd
kts
Gust
kts
25/11:30am 18.7 17.0 8.2 50 5.4 SSW 7 13 4 7 1016.5 - 0.0
25/11:00am 18.4 17.0 9.7 57 4.6 ENE 7 13 4 7 1016.9 - 0.0
25/10:30am 17.6 16.1 10.5 63 3.8 N 9 15 5 8 1016.9 - 0.0
25/10:00am 16.6 14.7 11.9 74 2.6 NNE 13 17 7 9 1016.9 - 0.0
25/09:30am 14.3 11.5 11.4 83 1.5 NNE 17 20 9 11 1017.0 - 0.0
25/09:07am 12.8 10.7 11.3 91 0.8 NE 13 17 7 9 1016.9 - 0.0
25/09:00am 12.1 9.9 10.7 91 0.7 NNE 13 17 7 9 1016.9 1016.9 0.2
25/08:46am 12.5 11.3 10.4 87 1.1 N 7 11 4 6 1017.1 - 0.2
25/08:30am 12.5 10.0 9.7 83 1.4 NNE 13 17 7 9 1016.8 - 0.0
25/08:00am 11.6 9.6 8.8 83 1.4 ENE 9 11 5 6 1016.5 - 0.0
25/07:30am 9.6 7.0 7.8 88 0.9 ESE 11 20 6 11 1016.3 - 0.0
25/07:00am 8.5 4.2 7.0 90 0.7 NNE 19 24 10 13 1015.5 - 0.0
25/06:30am 7.0 2.5 5.9 93 0.5 NNE 19 22 10 12 1015.3 - 0.0
25/06:00am 7.0 2.5 5.9 93 0.5 NNE 19 26 10 14 1015.2 1015.2 0.0
25/05:30am 7.2 2.7 6.2 93 0.5 NNE 19 24 10 13 1015.0 - 0.0
25/05:00am 7.2 2.7 6.0 92 0.5 NNE 19 20 10 11 1014.7 - 0.0
25/04:30am 6.7 1.9 5.6 93 0.5 NNE 20 24 11 13 1014.7 - 0.0
25/04:00am 6.7 2.1 5.6 93 0.5 NNE 19 24 10 13 1014.6 - 0.0
25/03:30am 7.1 2.6 6.0 93 0.5 NNE 19 22 10 12 1014.7 - 0.0
25/03:00am 6.9 2.3 5.7 92 0.5 NNE 19 24 10 13 1014.7 1014.7 0.0
25/02:30am 6.9 2.3 5.8 93 0.5 NNE 19 20 10 11 1014.7 - 0.0
25/02:00am 7.0 2.8 5.7 91 0.6 NNE 17 20 9 11 1014.7 - 0.0
25/01:30am 7.4 3.3 6.1 91 0.6 NNE 17 20 9 11 1014.8 - 0.0
25/01:00am 7.4 2.8 5.8 90 0.7 NNE 19 20 10 11 1014.9 - 0.0
25/12:30am 7.6 3.5 6.4 92 0.5 NNE 17 19 9 10 1015.1 - 0.0
25/12:00am 8.2 4.6 6.7 90 0.7 NNE 15 19 8 10 1015.1 1015.1 0.0
 
Date/Time
WST
Temp
°C
App
Temp
°C
Dew
Point
°C
Rel
Hum
%
Delta-T
°C
Wind Press
QNH
hPa
Press
MSL
hPa
Rain since
9am
mm
Dir  Spd
km/h
Gust
km/h
Spd
kts
Gust
kts
24/11:30pm 8.0 4.8 6.8 92 0.6 NNE 13 15 7 8 1015.4 - 0.0
24/11:00pm 8.9 5.8 7.4 90 0.7 NNE 13 17 7 9 1015.7 - 0.0
24/10:30pm 9.2 6.1 7.4 88 0.9 NNE 13 15 7 8 1015.9 - 0.0
24/10:00pm 9.5 6.5 7.6 88 0.9 NNE 13 13 7 7 1016.1 - 0.0
24/09:30pm 10.3 8.3 8.5 89 0.9 NE 9 11 5 6 1016.2 - 0.0
24/09:00pm 10.6 8.5 8.3 86 1.1 NE 9 9 5 5 1016.3 1016.3 0.0
24/08:30pm 11.2 9.6 7.9 80 1.6 NE 6 7 3 4 1016.2 - 0.0
24/08:00pm 11.3 9.8 8.3 82 1.5 NE 6 9 3 5 1016.2 - 0.0
24/07:30pm 12.9 11.1 7.8 71 2.5 WNW 7 11 4 6 1016.0 - 0.0
24/07:00pm 13.1 10.7 7.1 67 2.9 WNW 9 11 5 6 1015.9 - 0.0
24/06:30pm 13.5 10.7 6.9 64 3.2 WNW 11 13 6 7 1015.7 - 0.0
24/06:00pm 14.8 11.5 6.4 57 4.1 W 13 17 7 9 1015.7 1015.7 0.0
24/05:30pm 16.3 12.9 6.0 50 5.0 W 13 17 7 9 1015.6 - 0.0
24/05:00pm 16.2 11.9 5.3 48 5.2 W 17 22 9 12 1015.6 - 0.0
24/04:30pm 16.0 11.3 5.1 48 5.2 WSW 19 24 10 13 1015.6 - 0.0
24/04:00pm 17.7 13.3 4.8 42 6.2 WSW 17 20 9 11 1015.3 - 0.0
24/03:30pm 18.2 14.2 5.0 41 6.4 WSW 15 22 8 12 1015.4 - 0.0
24/03:00pm 18.2 14.1 4.3 39 6.6 W 15 24 8 13 1015.3 1015.3 0.0
24/02:30pm 18.4 14.2 4.0 38 6.8 W 15 24 8 13 1015.6 - 0.0
24/02:00pm 18.0 14.1 3.4 38 6.8 SW 13 19 7 10 1015.7 - 0.0
24/01:30pm 17.9 12.7 2.4 35 7.1 SW 19 22 10 12 1015.9 - 0.0
24/01:00pm 18.9 16.2 3.7 36 7.2 SW 7 15 4 8 1016.2 - 0.0
24/12:30pm 17.6 13.1 2.4 36 6.9 WSW 15 24 8 13 1016.7 - 0.0
24/12:00pm 18.1 14.1 3.0 36 7.0 W 13 22 7 12 1017.1 1017.1 0.0
24/11:30am 17.8 14.2 2.8 36 6.9 SSW 11 17 6 9 1017.3 - 0.0
24/11:00am 17.6 14.4 3.1 38 6.7 N 9 17 5 9 1017.5 - 0.0
24/10:30am 17.1 13.5 2.9 38 6.5 SE 11 19 6 10 1017.9 - 0.0
24/10:00am 16.5 12.4 2.5 39 6.3 E 13 19 7 10 1018.2 - 0.0
24/09:30am 15.5 10.6 4.3 47 5.2 NE 19 24 10 13 1018.3 - 0.0
24/09:00am 14.5 9.4 4.3 50 4.7 NE 20 26 11 14 1018.4 1018.5 0.0
24/08:30am 13.1 8.8 5.4 59 3.6 NE 17 20 9 11 1018.5 - 0.0
24/08:00am 11.8 7.7 6.3 69 2.6 NNE 17 20 9 11 1018.4 - 0.0
24/07:30am 11.0 7.3 6.1 72 2.3 NNE 15 20 8 11 1018.3 - 0.0
24/07:00am 10.6 7.2 6.1 74 2.1 NNE 13 17 7 9 1018.2 - 0.0
24/06:30am 10.2 6.9 6.6 78 1.7 NNE 13 17 7 9 1017.8 - 0.0
24/06:00am 10.1 7.4 7.2 82 1.4 NNE 11 15 6 8 1017.7 1017.8 0.0
24/05:30am 10.3 7.6 7.3 82 1.4 NE 11 13 6 7 1017.7 - 0.0
24/05:00am 10.3 8.6 7.6 83 1.3 NE 6 9 3 5 1017.5 - 0.0
24/04:30am 10.3 8.0 7.6 83 1.3 ENE 9 11 5 6 1017.3 - 0.0
24/04:00am 10.5 8.1 7.2 80 1.6 NE 9 9 5 5 1017.2 - 0.0
24/03:30am 10.4 7.3 7.2 80 1.5 NE 13 15 7 8 1017.2 - 0.0
24/03:00am 10.3 7.7 7.6 83 1.3 ENE 11 13 6 7 1017.4 1017.4 0.0
24/02:30am 10.6 8.4 7.8 83 1.4 NNE 9 11 5 6 1017.4 - 0.0
24/02:00am 10.7 8.6 8.4 86 1.1 NE 9 11 5 6 1017.6 - 0.0
24/01:30am 10.9 9.3 8.8 87 1.0 NE 7 9 4 5 1017.5 - 0.0
24/01:00am 10.9 9.6 9.1 89 0.9 NNE 6 7 3 4 1017.6 - 0.0
24/12:30am 11.0 10.4 9.1 88 0.9 NNE 2 7 1 4 1017.7 - 0.0
24/12:00am 11.0 9.6 9.0 87 1.0 NE 6 9 3 5 1018.0 1018.1 0.0
 
Date/Time
WST
Temp
°C
App
Temp
°C
Dew
Point
°C
Rel
Hum
%
Delta-T
°C
Wind Press
QNH
hPa
Press
MSL
hPa
Rain since
9am
mm
Dir  Spd
km/h
Gust
km/h
Spd
kts
Gust
kts
23/11:30pm 10.8 9.2 8.6 86 1.1 ENE 7 9 4 5 1018.2 - 0.0
23/11:00pm 10.2 8.0 7.7 84 1.2 SE 9 11 5 6 1018.4 - 0.0
23/10:30pm 10.7 8.9 8.0 83 1.3 ESE 7 9 4 5 1018.5 - 0.0
23/10:00pm 10.7 8.6 8.3 85 1.2 SE 9 13 5 7 1018.6 - 0.0
23/09:30pm 11.8 9.8 8.8 82 1.5 SE 9 13 5 7 1018.4 - 0.0
23/09:00pm 11.9 10.5 8.7 81 1.6 ESE 6 9 3 5 1018.3 1018.4 0.0
23/08:30pm 13.2 10.2 7.8 70 2.7 S 13 17 7 9 1018.1 - 0.0
23/08:00pm 13.9 10.1 7.7 66 3.1 S 17 24 9 13 1017.9 - 0.0
23/07:30pm 13.7 9.9 7.6 66 3.0 S 17 22 9 12 1017.8 - 0.0
23/07:00pm 13.2 10.2 7.5 68 2.8 S 13 19 7 10 1017.6 - 0.0
23/06:30pm 13.8 9.9 7.3 65 3.2 S 17 20 9 11 1017.3 - 0.0
23/06:00pm 14.3 9.9 7.6 64 3.3 S 20 30 11 16 1017.0 1017.0 0.0
23/05:30pm 15.1 9.8 7.0 58 4.0 S 24 33 13 18 1016.8 - 0.0
23/05:00pm 15.7 10.2 7.5 58 4.1 S 26 35 14 19 1016.7 - 0.0
23/04:30pm 16.7 11.1 7.1 53 4.8 SSW 26 35 14 19 1016.4 - 0.0
23/04:00pm 17.0 10.8 6.2 49 5.3 SSW 28 41 15 22 1016.2 - 0.0
23/03:30pm 16.9 10.9 6.9 51 5.0 SSW 28 39 15 21 1016.1 - 0.0
23/03:00pm 17.5 10.8 5.6 45 5.8 SSW 30 39 16 21 1016.0 1016.0 0.0
23/02:30pm 16.9 10.5 5.2 46 5.6 SSW 28 37 15 20 1016.0 - 0.0
23/02:00pm 15.2 10.9 9.4 68 3.0 SSW 22 37 12 20 1016.2 - 0.0
23/01:30pm 14.8 10.6 9.8 72 2.6 SSW 22 41 12 22 1016.4 - 0.0
23/01:13pm 16.1 10.0 8.4 60 3.9 SSW 30 48 16 26 1016.2 - 0.0
23/01:00pm 18.0 13.3 7.6 50 5.3 SSW 22 35 12 19 1016.2 - 0.0
23/12:30pm 18.2 12.3 7.3 49 5.5 SW 28 35 15 19 1016.5 - 0.0
23/12:00pm 16.4 10.2 9.9 65 3.4 SW 33 43 18 23 1016.6 1016.6 0.0
23/11:30am 17.1 11.4 8.5 57 4.4 SSW 28 37 15 20 1016.8 - 0.0
23/11:00am 17.9 12.5 8.2 53 5.0 SW 26 35 14 19 1016.8 - 0.0
23/10:30am 17.3 12.6 9.2 59 4.2 SW 24 41 13 22 1016.9 - 0.0
23/10:00am 16.9 10.7 6.3 49 5.2 SSW 28 37 15 20 1017.1 - 0.0
23/09:30am 16.4 12.2 9.8 65 3.5 SW 22 39 12 21 1017.1 - 0.0
23/09:00am 16.5 11.7 10.2 66 3.3 SSW 26 35 14 19 1017.1 1017.1 2.4
23/08:30am 15.6 10.3 9.8 68 3.0 SSW 28 37 15 20 1016.8 - 2.4
23/08:00am 16.0 11.8 9.9 67 3.2 SW 22 30 12 16 1016.7 - 2.4
23/07:30am 14.7 11.2 10.3 75 2.3 SSW 19 26 10 14 1016.3 - 2.4
23/07:00am 13.2 10.3 9.5 78 1.9 SW 15 19 8 10 1016.1 - 2.4
23/06:30am 12.7 10.8 10.4 86 1.2 SSW 11 20 6 11 1015.8 - 2.4
23/06:00am 12.0 11.2 11.0 94 0.5 S 6 9 3 5 1015.8 1015.8 2.4
23/05:30am 12.1 10.4 11.3 95 0.4 S 11 13 6 7 1015.5 - 2.4
23/05:22am 12.3 10.7 11.4 94 0.5 S 11 13 6 7 1015.5 - 2.4
23/05:02am 12.8 10.0 11.5 92 0.7 SSW 17 26 9 14 1015.6 - 2.4
23/05:00am 12.8 9.4 11.3 91 0.8 SSW 20 26 11 14 1015.6 - 2.2
23/04:30am 10.9 9.5 9.7 92 0.6 SW 7 7 4 4 1014.9 - 2.0
23/04:00am 11.8 10.2 10.3 90 0.8 SSW 9 11 5 6 1014.8 - 2.0
23/03:30am 13.1 10.3 11.2 88 1.0 SSW 17 20 9 11 1014.9 - 2.0
23/03:17am 13.4 9.7 11.6 89 1.0 SSW 22 32 12 17 1014.9 - 2.0
23/03:00am 13.3 9.3 11.8 91 0.8 WSW 24 33 13 18 1015.0 1015.0 2.0
23/02:56am 13.4 9.4 11.7 89 0.9 SW 24 33 13 18 1015.1 - 1.6
23/02:30am 9.5 9.1 8.1 91 0.7 CALM 0 2 0 1 1014.9 - 1.4
23/02:00am 9.8 7.9 6.9 82 1.4 SW 6 7 3 4 1015.0 - 1.4
23/01:30am 11.1 9.1 7.3 77 1.8 SW 7 7 4 4 1015.2 - 1.4
23/01:00am 11.6 8.8 7.1 74 2.2 SSW 11 13 6 7 1015.4 - 1.4
23/12:30am 13.2 8.7 5.9 61 3.5 SSW 19 26 10 14 1015.4 - 1.4
23/12:00am 13.0 9.6 7.5 69 2.7 SW 15 20 8 11 1015.5 1015.5 1.4
 
Date/Time
WST
Temp
°C
App
Temp
°C
Dew
Point
°C
Rel
Hum
%
Delta-T
°C
Wind Press
QNH
hPa
Press
MSL
hPa
Rain since
9am
mm
Dir  Spd
km/h
Gust
km/h
Spd
kts
Gust
kts
22/11:30pm 12.2 8.6 6.8 69 2.6 SW 15 19 8 10 1015.7 - 1.4
22/11:00pm 13.2 9.4 7.4 68 2.8 SW 17 20 9 11 1015.8 - 1.4
22/10:30pm 12.8 9.6 8.6 75 2.1 SSW 15 22 8 12 1015.8 - 1.4
22/10:00pm 13.1 10.0 9.0 76 2.1 SSW 15 19 8 10 1015.8 - 1.4
22/09:30pm 14.2 10.7 10.2 77 2.1 SSW 19 24 10 13 1015.8 - 1.4
22/09:00pm 14.8 10.7 10.2 74 2.4 SW 22 28 12 15 1015.8 1015.8 1.4
22/08:30pm 15.2 12.3 11.0 76 2.2 SSW 17 22 9 12 1015.8 - 1.4
22/08:00pm 15.3 12.4 10.9 75 2.3 SSW 17 20 9 11 1015.6 - 1.4
22/07:30pm 15.7 12.6 11.6 76 2.2 SSW 19 26 10 14 1015.3 - 1.4
22/07:00pm 15.7 13.0 12.8 83 1.6 S 19 24 10 13 1014.9 - 1.4
22/06:30pm 15.6 13.4 12.2 80 1.9 SSW 15 20 8 11 1014.6 - 1.4
22/06:00pm 15.8 14.6 14.0 89 1.0 S 13 20 7 11 1014.3 1014.3 1.2
22/05:30pm 15.8 14.1 13.5 86 1.3 SSW 15 20 8 11 1014.2 - 1.2
22/05:00pm 16.8 15.5 14.7 87 1.2 SSW 15 19 8 10 1013.8 - 1.2
22/04:48pm 16.6 16.4 15.6 94 0.6 SSW 11 15 6 8 1013.8 - 1.2
22/04:45pm 16.5 16.2 15.4 93 0.6 SSW 11 15 6 8 1013.8 - 1.2
22/04:30pm 16.2 15.5 15.3 94 0.5 SSW 13 19 7 10 1013.7 - 1.2
22/04:00pm 16.0 15.6 15.2 95 0.5 W 11 15 6 8 1013.5 - 0.6
22/03:30pm 15.8 11.2 14.6 93 0.7 W 32 41 17 22 1013.5 - 0.4
22/03:15pm 16.2 11.7 14.9 92 0.7 W 32 43 17 23 1013.4 - 0.0
22/03:13pm 16.6 12.1 15.0 90 0.9 W 32 43 17 23 1013.4 - 0.0
22/03:00pm 18.2 13.5 13.2 72 2.8 W 30 41 16 22 1013.2 1013.2 0.0
22/02:30pm 20.0 15.4 11.1 56 4.9 W 26 37 14 20 1013.1 - 0.0
22/02:00pm 20.8 16.4 10.5 51 5.6 WNW 24 35 13 19 1013.1 - 0.0
22/01:30pm 20.0 15.6 10.4 54 5.2 W 24 33 13 18 1013.1 - 0.0
22/01:00pm 19.9 16.0 10.8 55 5.0 W 22 30 12 16 1013.2 - 0.0
22/12:30pm 20.1 16.2 10.8 55 5.1 W 22 32 12 17 1013.3 - 0.0
22/12:00pm 19.5 15.2 9.5 52 5.3 W 22 28 12 15 1013.4 1013.4 0.0

Other Formats:

Comma delimited format used in spreadsheet applications
http://www.bom.gov.au/fwo/IDW60801/IDW60801.94403.axf

JavaScript Object Notation format (JSON) in row-major order
http://www.bom.gov.au/fwo/IDW60801/IDW60801.94403.json